Time;durP1;ratioP1;P1;durP2;ratioP2;P2;SDS_P1;SDS_P2;PMS_P1;PMS_P2;Temp;Humidity;BMP_temperature;BMP_pressure;BME280_temperature;BME280_humidity;BME280_pressure;Samples;Min_cycle;Max_cycle;Signal;HPM_P1;HPM_P2
2024/02/29 00:00:37;;;;;;;26.83;18.05;;;;;;;;;;5009588;28;20505;-58
2024/02/29 00:03:03;;;;;;;31.60;20.13;;;;;;;;;;5009709;28;20302;-57
2024/02/29 00:05:29;;;;;;;31.20;17.40;;;;;;;;;;5009034;28;20068;-57
2024/02/29 00:07:55;;;;;;;29.67;16.60;;;;;;;;;;5009325;28;20034;-53
2024/02/29 00:10:22;;;;;;;29.45;17.27;;;;;;;;;;5009179;28;20045;-56
2024/02/29 00:12:48;;;;;;;26.15;17.55;;;;;;;;;;5006331;28;20029;-56
2024/02/29 00:15:14;;;;;;;26.65;17.27;;;;;;;;;;5009166;28;20042;-52
2024/02/29 00:17:40;;;;;;;30.60;16.63;;;;;;;;;;5009169;28;20021;-56
2024/02/29 00:20:08;;;;;;;26.77;16.73;;;;;;;;;;5009078;28;20049;-57
2024/02/29 00:22:34;;;;;;;28.80;17.73;;;;;;;;;;5008306;28;20033;-59
2024/02/29 00:25:00;;;;;;;30.45;17.17;;;;;;;;;;5008893;28;20021;-57
2024/02/29 00:27:26;;;;;;;30.35;19.45;;;;;;;;;;5009016;28;20104;-55
2024/02/29 00:29:52;;;;;;;36.40;18.23;;;;;;;;;;5007796;28;20040;-54
2024/02/29 00:32:18;;;;;;;29.73;17.60;;;;;;;;;;5009043;28;20022;-57
2024/02/29 00:34:44;;;;;;;29.30;16.85;;;;;;;;;;5008755;28;20040;-59
2024/02/29 00:37:10;;;;;;;31.52;19.70;;;;;;;;;;5008681;28;20109;-56
2024/02/29 00:39:36;;;;;;;32.03;18.38;;;;;;;;;;5008757;28;20029;-54
2024/02/29 00:42:02;;;;;;;27.15;17.17;;;;;;;;;;5008729;28;20026;-53
2024/02/29 00:44:28;;;;;;;28.27;17.30;;;;;;;;;;5008656;28;20486;-57
2024/02/29 00:46:54;;;;;;;26.95;16.55;;;;;;;;;;5003741;28;20101;-55
2024/02/29 00:49:20;;;;;;;26.83;16.40;;;;;;;;;;4996189;28;20034;-55
2024/02/29 00:51:46;;;;;;;27.33;17.75;;;;;;;;;;4987913;28;20371;-51
2024/02/29 00:54:12;;;;;;;29.60;17.55;;;;;;;;;;4987924;28;20417;-56
2024/02/29 00:56:38;;;;;;;26.23;15.63;;;;;;;;;;4993930;28;20030;-56
2024/02/29 00:59:04;;;;;;;27.98;17.83;;;;;;;;;;5008650;28;20029;-57
2024/02/29 01:01:30;;;;;;;23.73;16.38;;;;;;;;;;5008819;28;20054;-57
2024/02/29 01:03:56;;;;;;;29.73;17.90;;;;;;;;;;5008505;28;20474;-56
2024/02/29 01:06:22;;;;;;;27.27;16.45;;;;;;;;;;5013966;28;20033;-51
2024/02/29 01:08:49;;;;;;;30.70;18.70;;;;;;;;;;5028086;28;20043;-53
2024/02/29 01:11:15;;;;;;;27.83;17.65;;;;;;;;;;5019305;28;20026;-54
2024/02/29 01:13:41;;;;;;;106.05;59.53;;;;;;;;;;5008092;28;20110;-56
2024/02/29 01:16:07;;;;;;;93.68;51.38;;;;;;;;;;5008459;28;20021;-52
2024/02/29 01:18:34;;;;;;;43.05;24.83;;;;;;;;;;5008267;28;20041;-56
2024/02/29 01:20:59;;;;;;;32.15;20.92;;;;;;;;;;5006081;28;20021;-57
2024/02/29 01:23:25;;;;;;;28.75;17.48;;;;;;;;;;5008571;28;20084;-54
2024/02/29 01:25:51;;;;;;;30.45;17.38;;;;;;;;;;5034183;23;20034;-54
2024/02/29 01:28:17;;;;;;;30.55;18.48;;;;;;;;;;5027071;28;20043;-49
2024/02/29 01:30:43;;;;;;;25.63;16.98;;;;;;;;;;5027018;28;20030;-50
2024/02/29 01:33:09;;;;;;;28.85;16.88;;;;;;;;;;5010784;28;20080;-50
2024/02/29 01:35:35;;;;;;;31.13;17.35;;;;;;;;;;5008790;28;20044;-54
2024/02/29 01:38:01;;;;;;;26.85;17.48;;;;;;;;;;5011561;28;20060;-50
2024/02/29 01:40:27;;;;;;;28.92;16.33;;;;;;;;;;5011912;28;20022;-47
2024/02/29 01:42:53;;;;;;;29.90;17.63;;;;;;;;;;5011911;28;20018;-46
2024/02/29 01:45:19;;;;;;;32.65;17.92;;;;;;;;;;5012104;28;20393;-48
2024/02/29 01:47:44;;;;;;;34.78;18.98;;;5.30;99.90;;;;;;5010966;28;20497;-48
2024/02/29 01:50:12;;;;;;;30.13;18.08;;;;;;;;;;5012442;28;20022;-46
2024/02/29 01:52:40;;;;;;;27.13;16.35;;;;;;;;;;5010688;28;20034;-48
2024/02/29 01:55:06;;;;;;;33.80;19.48;;;;;;;;;;5011155;28;20018;-45
2024/02/29 01:57:33;;;;;;;28.10;17.13;;;;;;;;;;5011463;28;20029;-49
2024/02/29 01:59:59;;;;;;;32.15;17.65;;;;;;;;;;5013569;28;20113;-48
2024/02/29 02:02:25;;;;;;;28.75;18.48;;;;;;;;;;5014644;28;20068;-46
2024/02/29 02:04:51;;;;;;;26.33;17.40;;;;;;;;;;5014720;28;20505;-46
2024/02/29 02:07:17;;;;;;;27.95;18.15;;;;;;;;;;5014537;28;20034;-44
2024/02/29 02:09:45;;;;;;;26.55;16.80;;;;;;;;;;5013489;28;20030;-48
2024/02/29 02:12:11;;;;;;;32.33;17.45;;;;;;;;;;5014628;28;20183;-48
2024/02/29 02:14:38;;;;;;;33.22;18.08;;;;;;;;;;5014531;28;20405;-48
2024/02/29 02:17:04;;;;;;;36.50;17.27;;;;;;;;;;5013144;28;20120;-45
2024/02/29 02:19:30;;;;;;;27.20;15.93;;;;;;;;;;5015000;28;20022;-52
2024/02/29 02:21:59;;;;;;;30.67;18.23;;;;;;;;;;5014447;28;20402;-51
2024/02/29 02:24:25;;;;;;;29.55;17.98;;;5.40;99.90;;;;;;5014389;28;20109;-54
2024/02/29 02:26:53;;;;;;;28.95;18.35;;;;;;;;;;5014127;28;20038;-49
2024/02/29 02:29:19;;;;;;;35.58;18.70;;;;;;;;;;5014223;28;20033;-46
2024/02/29 02:31:45;;;;;;;25.48;16.33;;;;;;;;;;5014483;28;20032;-50
2024/02/29 02:34:10;;;;;;;28.40;17.30;;;4.60;99.90;;;;;;5013780;28;20060;-51
2024/02/29 02:36:36;;;;;;;23.98;15.90;;;4.30;99.90;;;;;;5013958;28;20497;-47
2024/02/29 02:39:30;;;;;;;24.17;14.60;;;;;;;;;;5013832;28;20034;-49
2024/02/29 02:41:56;;;;;;;28.13;14.77;;;4.10;99.90;;;;;;5013943;28;20061;-51
2024/02/29 02:44:21;;;;;;;22.77;13.73;;;3.90;99.90;;;;;;5014613;28;20048;-49
2024/02/29 02:46:47;;;;;;;19.48;12.55;;;3.90;99.90;;;;;;5013688;28;20026;-48
2024/02/29 02:49:13;;;;;;;20.67;13.23;;;3.80;99.90;;;;;;5013861;28;20048;-46
2024/02/29 02:51:39;;;;;;;26.15;15.02;;;3.80;99.90;;;;;;5013855;28;20022;-46
2024/02/29 02:54:04;;;;;;;27.70;16.73;;;3.80;99.90;;;;;;5013784;28;20551;-46
2024/02/29 02:56:30;;;;;;;28.05;15.73;;;3.80;99.90;;;;;;5013627;28;20036;-46
2024/02/29 02:58:55;;;;;;;24.42;14.80;;;3.90;99.90;;;;;;5013607;28;20022;-47
2024/02/29 03:01:21;;;;;;;25.15;15.13;;;3.80;99.90;;;;;;5013636;28;20385;-46
2024/02/29 03:03:46;;;;;;;25.65;15.50;;;3.70;99.90;;;;;;5012311;28;20420;-46
2024/02/29 03:06:14;;;;;;;30.65;15.57;;;3.70;99.90;;;;;;5013141;28;20036;-50
2024/02/29 03:08:40;;;;;;;27.50;14.75;;;3.50;99.90;;;;;;5012482;28;20367;-47
2024/02/29 03:11:06;;;;;;;23.13;14.63;;;3.50;99.90;;;;;;5013581;28;20022;-47
2024/02/29 03:13:31;;;;;;;19.33;12.60;;;3.40;99.90;;;;;;5013400;28;20113;-46
2024/02/29 03:15:56;;;;;;;20.27;13.43;;;3.40;99.90;;;;;;5013104;28;20508;-46
2024/02/29 03:18:22;;;;;;;25.25;12.85;;;3.40;99.90;;;;;;5013505;28;20022;-44
2024/02/29 03:20:47;;;;;;;26.05;15.95;;;3.30;99.90;;;;;;5014440;28;20489;-47
2024/02/29 03:23:13;;;;;;;29.17;15.93;;;3.30;99.90;;;;;;5014028;28;20030;-48
2024/02/29 03:25:39;;;;;;;25.65;14.63;;;3.30;99.90;;;;;;5028822;28;20026;-53
2024/02/29 03:28:04;;;;;;;26.25;14.30;;;3.40;99.90;;;;;;5013510;28;20099;-51
2024/02/29 03:30:30;;;;;;;23.48;14.25;;;3.40;99.90;;;;;;5013923;28;20026;-48
2024/02/29 03:32:55;;;;;;;25.70;14.73;;;3.40;99.90;;;;;;5012703;28;20084;-49
2024/02/29 03:35:21;;;;;;;20.77;13.25;;;3.40;99.90;;;;;;5013025;28;20034;-51
2024/02/29 03:37:46;;;;;;;22.88;14.18;;;3.30;99.90;;;;;;5013111;28;20061;-48
2024/02/29 03:40:12;;;;;;;25.27;14.80;;;3.30;99.90;;;;;;5012787;28;20493;-46
2024/02/29 03:42:38;;;;;;;24.45;13.75;;;3.20;99.90;;;;;;5013176;28;20022;-50
2024/02/29 03:45:05;;;;;;;26.08;14.77;;;3.20;99.90;;;;;;5016062;28;20390;-53
2024/02/29 03:47:30;;;;;;;27.88;16.38;;;3.20;99.90;;;;;;5015816;28;20025;-52
2024/02/29 03:49:55;;;;;;;26.88;16.17;;;3.20;99.90;;;;;;5015419;28;20041;-51
2024/02/29 03:52:21;;;;;;;24.40;14.40;;;3.10;99.90;;;;;;5015256;28;20037;-47
2024/02/29 03:54:46;;;;;;;27.33;15.20;;;3.20;99.90;;;;;;5014366;28;20033;-48
2024/02/29 03:57:12;;;;;;;28.27;13.82;;;3.20;99.90;;;;;;5013184;28;20113;-49
2024/02/29 03:59:37;;;;;;;19.40;12.70;;;3.00;99.90;;;;;;5014508;28;20037;-49
2024/02/29 04:02:03;;;;;;;28.40;15.32;;;3.00;99.90;;;;;;5013334;28;20501;-46
2024/02/29 04:04:29;;;;;;;26.00;15.55;;;2.90;99.90;;;;;;5011581;28;20037;-51
2024/02/29 04:06:54;;;;;;;26.42;15.32;;;2.90;99.90;;;;;;5012302;28;20117;-51
2024/02/29 04:09:20;;;;;;;28.38;15.02;;;2.90;99.90;;;;;;5012506;28;20026;-51
2024/02/29 04:11:46;;;;;;;24.38;15.05;;;3.00;99.90;;;;;;5011308;28;20018;-48
2024/02/29 04:14:11;;;;;;;22.67;13.13;;;3.00;99.90;;;;;;5012150;28;20555;-48
2024/02/29 04:16:37;;;;;;;16.92;11.07;;;3.00;99.90;;;;;;5012101;28;20029;-50
2024/02/29 04:19:04;;;;;;;21.95;11.80;;;3.00;99.90;;;;;;5012048;28;20104;-49
2024/02/29 04:21:30;;;;;;;20.92;10.93;;;3.00;99.90;;;;;;5012026;28;20018;-50
2024/02/29 04:23:55;;;;;;;19.52;12.00;;;3.00;99.90;;;;;;5012092;28;20022;-51
2024/02/29 04:26:24;;;;;;;20.50;11.55;;;3.00;99.90;;;;;;5011934;28;20041;-49
2024/02/29 04:28:49;;;;;;;17.95;11.65;;;3.00;99.90;;;;;;5012381;28;20026;-47
2024/02/29 04:31:15;;;;;;;17.35;11.13;;;3.00;99.90;;;;;;5012047;28;20026;-53
2024/02/29 04:33:40;;;;;;;19.13;11.65;;;3.00;99.90;;;;;;5011654;28;20105;-51
2024/02/29 04:36:07;;;;;;;14.38;10.57;;;3.00;99.90;;;;;;5011866;28;20040;-50
2024/02/29 04:38:32;;;;;;;16.10;11.02;;;3.00;99.90;;;;;;5010758;28;20041;-46
2024/02/29 04:40:58;;;;;;;23.98;10.88;;;3.00;99.90;;;;;;5012001;28;20449;-48
2024/02/29 04:43:24;;;;;;;19.80;12.50;;;2.90;99.90;;;;;;5011691;28;20080;-48
2024/02/29 04:45:49;;;;;;;17.00;10.93;;;2.90;99.90;;;;;;5012176;28;20030;-49
2024/02/29 04:48:15;;;;;;;16.10;11.55;;;2.90;99.90;;;;;;5011703;28;20080;-48
2024/02/29 04:50:40;;;;;;;16.95;11.07;;;2.90;99.90;;;;;;5011927;28;20029;-51
2024/02/29 04:53:06;;;;;;;19.75;12.57;;;2.80;99.90;;;;;;5011787;28;20106;-50
2024/02/29 04:55:34;;;;;;;22.35;13.00;;;3.00;99.90;;;;;;5010416;28;20515;-49
2024/02/29 04:57:59;;;;;;;26.45;13.00;;;3.00;99.90;;;;;;5011367;28;20104;-46
2024/02/29 05:00:25;;;;;;;17.95;11.30;;;3.00;99.90;;;;;;5011721;28;20121;-49
2024/02/29 05:02:50;;;;;;;20.38;11.98;;;3.00;99.90;;;;;;5011893;28;20112;-50
2024/02/29 05:05:16;;;;;;;21.67;12.45;;;3.00;99.90;;;;;;5011616;28;20038;-52
2024/02/29 05:07:43;;;;;;;21.67;12.57;;;3.00;99.90;;;;;;5011454;28;20026;-46
2024/02/29 05:10:09;;;;;;;19.95;11.07;;;2.90;99.90;;;;;;5012095;28;20022;-46
2024/02/29 05:12:35;;;;;;;20.58;14.05;;;2.90;99.90;;;;;;5011338;28;20037;-51
2024/02/29 05:15:01;;;;;;;22.88;13.57;;;2.90;99.90;;;;;;5011389;28;20107;-47
2024/02/29 05:17:26;;;;;;;26.25;14.02;;;2.90;99.90;;;;;;5011220;28;20490;-47
2024/02/29 05:19:52;;;;;;;20.08;13.35;;;2.90;99.90;;;;;;5010230;28;20026;-48
2024/02/29 05:22:18;;;;;;;20.42;12.05;;;3.10;99.90;;;;;;5011448;28;20041;-47
2024/02/29 05:24:43;;;;;;;19.73;11.73;;;3.20;99.90;;;;;;5011452;28;20034;-48
2024/02/29 05:27:09;;;;;;;19.73;12.43;;;3.20;99.90;;;;;;5011232;28;20517;-50
2024/02/29 05:29:34;;;;;;;22.00;13.02;;;3.10;99.90;;;;;;5011588;28;20026;-46
2024/02/29 05:32:00;;;;;;;25.75;16.15;;;3.00;99.90;;;;;;5012480;28;20026;-47
2024/02/29 05:34:26;;;;;;;19.75;12.77;;;2.90;99.90;;;;;;5015316;28;20022;-54
2024/02/29 05:36:51;;;;;;;23.52;13.10;;;2.80;99.90;;;;;;5014975;28;20026;-51
2024/02/29 05:39:17;;;;;;;19.92;12.00;;;2.80;99.90;;;;;;5015147;28;20018;-47
2024/02/29 05:41:42;;;;;;;19.13;12.10;;;2.70;99.90;;;;;;5015122;28;20030;-48
2024/02/29 05:44:10;;;;;;;16.45;10.30;;;2.80;99.90;;;;;;5015342;28;20030;-46
2024/02/29 05:46:36;;;;;;;19.92;12.40;;;2.80;99.90;;;;;;5013543;28;20505;-48
2024/02/29 05:49:02;;;;;;;21.58;12.40;;;2.80;99.90;;;;;;5014947;28;20053;-49
2024/02/29 05:51:27;;;;;;;20.15;12.13;;;2.90;99.90;;;;;;5014934;28;20367;-47
2024/02/29 05:53:53;;;;;;;20.90;12.30;;;2.80;99.90;;;;;;5015827;28;20022;-47
2024/02/29 05:56:18;;;;;;;18.10;11.90;;;2.80;99.90;;;;;;5015581;28;20026;-51
2024/02/29 05:58:44;;;;;;;20.52;10.73;;;2.70;99.90;;;;;;5015097;28;20022;-46
2024/02/29 06:01:10;;;;;;;23.90;11.57;;;2.60;99.90;;;;;;5014887;28;20034;-48
2024/02/29 06:03:37;;;;;;;17.70;11.02;;;2.40;99.90;;;;;;5014639;28;20118;-48
2024/02/29 06:06:06;;;;;;;18.20;11.40;;;2.40;99.90;;;;;;5014643;28;20022;-50
2024/02/29 06:08:31;;;;;;;21.10;12.30;;;2.30;99.90;;;;;;5014619;28;20109;-51
2024/02/29 06:10:57;;;;;;;23.48;11.45;;;2.30;99.90;;;;;;5014889;28;20105;-52
2024/02/29 06:13:22;;;;;;;18.75;11.40;;;2.30;99.90;;;;;;5014982;28;20022;-48
2024/02/29 06:15:48;;;;;;;17.38;10.80;;;2.30;99.90;;;;;;5014314;28;20030;-47
2024/02/29 06:18:14;;;;;;;23.60;10.52;;;2.30;99.90;;;;;;5014906;28;20096;-49
2024/02/29 06:20:39;;;;;;;16.77;11.82;;;2.30;99.90;;;;;;5029542;28;20021;-46
2024/02/29 06:23:05;;;;;;;20.42;12.60;;;2.30;99.90;;;;;;5014652;28;20130;-51
2024/02/29 06:25:31;;;;;;;18.02;11.35;;;2.40;99.90;;;;;;5014182;28;20034;-47
2024/02/29 06:27:57;;;;;;;19.77;11.15;;;2.50;99.90;;;;;;5013938;28;20041;-47
2024/02/29 06:30:31;;;;;;;16.92;10.70;;;2.60;99.90;;;;;;5014184;28;20516;-47
2024/02/29 06:33:00;;;;;;;18.20;11.65;;;2.60;99.90;;;;;;5014491;28;20029;-49
2024/02/29 06:35:25;;;;;;;17.40;11.02;;;2.80;99.90;;;;;;5012994;28;20030;-51
2024/02/29 06:37:51;;;;;;;17.00;10.70;;;3.00;99.90;;;;;;5013907;28;20540;-47
2024/02/29 06:40:16;;;;;;;22.13;14.10;;;3.10;99.90;;;;;;5014075;28;20034;-44
2024/02/29 06:42:42;;;;;;;18.85;12.55;;;3.20;99.90;;;;;;5013961;28;20022;-50
2024/02/29 06:45:09;;;;;;;23.73;13.70;;;3.30;99.90;;;;;;5014339;28;20121;-50
2024/02/29 06:47:34;;;;;;;20.50;12.50;;;3.50;99.90;;;;;;5013513;28;20030;-46
2024/02/29 06:50:00;;;;;;;20.45;12.65;;;3.80;99.90;;;;;;5013750;28;20045;-50
2024/02/29 06:52:26;;;;;;;18.95;12.43;;;4.10;99.90;;;;;;5013755;28;20041;-50
2024/02/29 06:54:52;;;;;;;16.83;10.82;;;4.40;99.90;;;;;;5013636;28;20362;-51
2024/02/29 06:57:18;;;;;;;19.55;12.05;;;4.60;99.90;;;;;;5013365;28;20030;-47
2024/02/29 06:59:43;;;;;;;21.77;11.85;;;4.90;99.90;;;;;;5013814;28;20026;-47
2024/02/29 07:02:09;;;;;;;17.75;10.90;;;5.00;99.90;;;;;;5013578;28;20074;-47
2024/02/29 07:04:34;;;;;;;18.13;12.73;;;5.20;99.90;;;;;;5013762;28;20040;-47
2024/02/29 07:07:00;;;;;;;20.13;12.40;;;5.20;99.90;;;;;;5013505;28;20044;-49
2024/02/29 07:09:25;;;;;;;19.35;12.23;;;5.40;99.90;;;;;;5013720;28;20021;-47
2024/02/29 07:11:51;;;;;;;26.65;12.98;;;5.40;99.90;;;;;;5013723;28;20030;-48
2024/02/29 07:14:16;;;;;;;21.42;11.45;;;5.60;99.90;;;;;;5013489;28;20493;-46
2024/02/29 07:16:42;;;;;;;14.48;10.32;;;5.70;99.90;;;;;;5013037;28;20453;-47
2024/02/29 07:19:08;;;;;;;14.63;10.23;;;5.80;99.90;;;;;;5013341;28;20053;-47
2024/02/29 07:21:35;;;;;;;19.40;10.32;;;6.30;99.90;;;;;;5013706;28;20064;-48
2024/02/29 07:24:02;;;;;;;16.85;10.70;;;6.10;99.90;;;;;;5013492;28;20022;-47
2024/02/29 07:26:28;;;;;;;17.40;11.00;;;6.40;99.90;;;;;;5038553;23;20083;-52
2024/02/29 07:28:53;;;;;;;20.90;12.00;;;6.40;99.90;;;;;;5049498;28;20500;-50
2024/02/29 07:31:19;;;;;;;25.58;11.38;;;6.40;99.90;;;;;;5049700;28;20097;-51
2024/02/29 07:33:46;;;;;;;19.30;10.85;;;6.40;99.90;;;;;;5032958;28;20070;-55
2024/02/29 07:36:11;;;;;;;18.02;10.90;;;6.40;99.90;;;;;;5031587;28;20029;-54
2024/02/29 07:38:37;;;;;;;29.25;11.38;;;6.50;99.90;;;;;;5032643;28;20026;-50
2024/02/29 07:41:02;;;;;;;18.20;13.20;;;6.80;99.90;;;;;;5032769;28;20144;-52
2024/02/29 07:43:28;;;;;;;15.07;10.55;;;6.90;99.90;;;;;;5031339;28;20029;-53
2024/02/29 07:45:53;;;;;;;20.73;11.05;;;6.90;99.90;;;;;;5032552;28;20037;-52
2024/02/29 07:48:19;;;;;;;21.05;11.85;;;6.90;99.90;;;;;;5032395;28;20022;-55
2024/02/29 07:50:44;;;;;;;22.17;11.10;;;6.80;99.90;;;;;;5031223;28;20068;-53
2024/02/29 07:53:10;;;;;;;15.77;11.40;;;6.60;99.90;;;;;;5032391;28;20113;-49
2024/02/29 07:55:36;;;;;;;19.63;11.77;;;6.60;99.90;;;;;;5032003;28;20166;-53
2024/02/29 07:58:03;;;;;;;18.38;11.93;;;6.60;99.90;;;;;;5032168;28;20117;-56
2024/02/29 08:00:29;;;;;;;23.83;11.40;;;6.50;99.90;;;;;;5032313;28;20472;-55
2024/02/29 08:02:54;;;;;;;19.10;12.02;;;6.60;99.90;;;;;;5030970;28;20025;-57
2024/02/29 08:05:20;;;;;;;21.10;11.75;;;6.60;99.90;;;;;;5032578;28;20030;-53
2024/02/29 08:07:47;;;;;;;23.42;12.52;;;6.60;99.90;;;;;;5032216;28;20025;-54
2024/02/29 08:10:15;;;;;;;21.83;13.40;;;6.80;99.90;;;;;;5032456;28;20059;-54
2024/02/29 08:12:42;;;;;;;22.63;13.30;;;6.90;99.90;;;;;;5032073;28;20485;-57
2024/02/29 08:15:08;;;;;;;22.40;14.95;;;7.00;99.90;;;;;;5032154;28;20022;-50
2024/02/29 08:17:34;;;;;;;24.88;14.85;;;7.00;99.90;;;;;;5031720;28;20111;-52
2024/02/29 08:19:59;;;;;;;23.45;15.90;;;7.20;99.90;;;;;;5031935;28;20096;-56
2024/02/29 08:22:25;;;;;;;34.15;19.38;;;7.10;99.90;;;;;;5031777;28;20031;-57
2024/02/29 08:24:50;;;;;;;28.20;17.48;;;7.20;99.90;;;;;;5031742;28;20033;-54
2024/02/29 08:27:16;;;;;;;32.60;18.35;;;7.20;99.90;;;;;;5031439;28;20044;-56
2024/02/29 08:29:41;;;;;;;30.23;18.52;;;7.40;99.90;;;;;;5031779;28;20553;-52
2024/02/29 08:32:07;;;;;;;36.83;22.25;;;7.50;99.90;;;;;;5031824;28;20136;-52
2024/02/29 08:34:32;;;;;;;44.22;23.42;;;7.60;99.90;;;;;;5031594;28;20052;-57
2024/02/29 08:36:59;;;;;;;37.90;23.65;;;7.60;99.90;;;;;;5030115;28;20025;-55
2024/02/29 08:39:24;;;;;;;38.92;23.08;;;7.60;99.90;;;;;;5031682;28;20021;-55
2024/02/29 08:41:50;;;;;;;39.70;23.00;;;7.70;99.90;;;;;;5031666;28;20028;-57
2024/02/29 08:44:15;;;;;;;40.92;24.50;;;7.60;99.90;;;;;;5031559;28;20041;-56
2024/02/29 08:46:42;;;;;;;40.30;24.27;;;7.80;99.90;;;;;;5046478;28;20021;-49
2024/02/29 08:49:07;;;;;;;46.58;25.02;;;7.70;99.90;;;;;;5056878;28;20385;-55
2024/02/29 08:51:33;;;;;;;51.85;25.65;;;7.60;99.90;;;;;;5050994;28;20017;-52
2024/02/29 08:53:59;;;;;;;40.38;24.42;;;7.70;99.90;;;;;;5051409;28;20496;-56
2024/02/29 08:56:24;;;;;;;44.78;25.33;;;7.80;99.90;;;;;;5050979;28;20115;-53
2024/02/29 08:58:51;;;;;;;43.03;25.20;;;7.90;99.90;;;;;;5040744;28;20018;-53
2024/02/29 09:01:19;;;;;;;46.38;25.00;;;7.90;99.90;;;;;;5039217;28;20107;-59
2024/02/29 09:03:45;;;;;;;43.53;25.38;;;7.90;99.90;;;;;;5050306;28;20029;-57
2024/02/29 09:06:11;;;;;;;45.53;24.10;;;7.90;99.90;;;;;;5050801;28;20650;-55
2024/02/29 09:08:37;;;;;;;40.03;23.85;;;7.80;99.90;;;;;;5054564;28;20027;-57
2024/02/29 09:11:03;;;;;;;41.15;24.20;;;7.60;99.90;;;;;;5055212;28;20108;-59
2024/02/29 09:13:29;;;;;;;49.58;26.05;;;7.50;99.90;;;;;;5055173;28;20029;-55
2024/02/29 09:15:54;;;;;;;44.08;24.27;;;7.60;99.90;;;;;;5053733;28;20021;-55
2024/02/29 09:18:20;;;;;;;40.75;24.92;;;7.60;99.90;;;;;;5054924;28;20021;-58
2024/02/29 09:20:45;;;;;;;50.85;27.40;;;7.50;99.90;;;;;;5055090;28;20496;-55
2024/02/29 09:23:11;;;;;;;46.38;26.13;;;7.70;99.90;;;;;;5055276;28;20551;-54
2024/02/29 09:25:36;;;;;;;48.40;28.10;;;7.70;99.90;;;;;;5054801;28;20025;-58
2024/02/29 09:28:02;;;;;;;46.38;27.40;;;7.80;99.90;;;;;;5054622;28;20123;-58
2024/02/29 09:30:28;;;;;;;52.92;30.52;;;7.90;99.90;;;;;;5055056;28;20032;-57
2024/02/29 09:32:55;;;;;;;49.45;28.55;;;7.50;99.90;;;;;;5054952;28;20029;-58
2024/02/29 09:35:20;;;;;;;52.47;29.23;;;7.60;99.90;;;;;;5054878;28;20480;-58
2024/02/29 09:37:46;;;;;;;56.38;30.42;;;7.50;99.90;;;;;;5053910;28;20032;-58
2024/02/29 09:40:15;;;;;;;53.83;28.40;;;7.80;99.90;;;;;;5070553;28;20492;-53
2024/02/29 09:42:44;;;;;;;54.60;30.02;;;7.80;99.90;;;;;;5068023;28;20033;-58
2024/02/29 09:45:13;;;;;;;52.30;28.50;;;7.80;99.90;;;;;;5066185;28;20025;-53
2024/02/29 09:47:40;;;;;;;50.00;29.42;;;7.90;99.90;;;;;;5054294;28;20025;-56
2024/02/29 09:50:08;;;;;;;53.08;31.10;;;8.10;99.90;;;;;;5054789;28;20051;-56
2024/02/29 09:52:41;;;;;;;55.63;30.40;;;8.30;99.90;;;;;;5052838;28;20039;-55
2024/02/29 09:55:13;;;;;;;47.10;27.33;;;8.30;99.90;;;;;;5054565;28;20025;-56
2024/02/29 09:57:39;;;;;;;47.60;28.92;;;8.30;99.90;;;;;;5054094;28;20024;-56
2024/02/29 10:00:10;;;;;;;49.65;29.65;;;8.50;99.90;;;;;;5053160;28;20028;-52
2024/02/29 10:02:38;;;;;;;52.20;29.35;;;8.60;99.90;;;;;;5054462;28;20046;-57
2024/02/29 10:05:05;;;;;;;53.83;29.83;;;8.60;99.90;;;;;;5052919;28;20072;-55
2024/02/29 10:07:31;;;;;;;52.63;29.70;;;8.90;99.90;;;;;;5054130;28;20224;-54
2024/02/29 10:09:58;;;;;;;49.30;28.48;;;9.50;99.90;;;;;;5054255;28;20104;-58
2024/02/29 10:12:24;;;;;;;50.05;28.77;;;9.90;99.90;;;;;;5054113;28;20029;-57
2024/02/29 10:14:59;;;;;;;50.13;30.50;;;9.80;99.90;;;;;;5054020;28;20503;-61
2024/02/29 10:17:24;;;;;;;58.00;32.60;;;9.50;99.90;;;;;;5053557;28;20025;-55
2024/02/29 10:19:52;;;;;;;95.00;49.85;;;9.20;99.90;;;;;;5054089;28;20087;-58
2024/02/29 10:22:21;;;;;;;75.07;44.05;;;9.00;99.90;;;;;;5054042;28;20477;-59
2024/02/29 10:24:54;;;;;;;54.85;31.10;;;8.80;99.90;;;;;;5053903;28;20047;-58
2024/02/29 10:27:22;;;;;;;52.33;27.58;;;8.80;99.90;;;;;;5053116;28;20063;-52
2024/02/29 10:29:49;;;;;;;52.35;28.75;;;8.60;99.90;;;;;;5071862;28;20028;-59
2024/02/29 10:32:15;;;;;;;55.47;29.35;;;8.70;99.90;;;;;;5071349;28;20039;-59
2024/02/29 10:34:41;;;;;;;53.13;29.73;;;9.50;99.90;;;;;;5053217;28;20112;-55
2024/02/29 10:37:07;;;;;;;49.08;28.38;;;8.90;99.90;;;;;;5050271;28;20465;-60
2024/02/29 10:39:34;;;;;;;54.97;30.15;;;9.30;99.90;;;;;;5053385;28;20029;-56
2024/02/29 10:42:00;;;;;;;50.97;28.77;;;9.70;99.90;;;;;;5051847;28;20488;-54
2024/02/29 10:44:30;;;;;;;49.30;28.70;;;9.90;99.90;;;;;;5053177;28;20021;-60
2024/02/29 10:47:02;;;;;;;57.33;29.75;;;10.10;99.90;;;;;;5052789;28;20028;-53
2024/02/29 10:49:35;;;;;;;52.95;29.13;;;10.30;99.90;;;;;;5050372;28;20017;-50
2024/02/29 10:52:33;;;;;;;56.88;30.00;;;10.60;99.90;;;;;;5051794;28;20033;-56
2024/02/29 10:55:10;;;;;;;46.95;27.85;;;;;;;;;;5051856;28;20091;-56
2024/02/29 10:57:51;;;;;;;51.03;29.67;;;11.70;99.90;;;;;;5051194;28;20377;-54
2024/02/29 11:00:17;;;;;;;52.53;29.52;;;;;;;;;;5051794;28;20052;-52
2024/02/29 11:02:43;;;;;;;51.97;30.77;;;;;;;;;;5051445;28;20057;-57
2024/02/29 11:05:10;;;;;;;57.60;30.35;;;10.60;99.90;;;;;;5052612;28;20071;-56
2024/02/29 11:07:35;;;;;;;58.67;32.60;;;10.40;99.90;;;;;;5052262;28;20415;-55
2024/02/29 11:10:04;;;;;;;52.70;29.25;;;10.30;99.90;;;;;;5052648;28;20195;-56
2024/02/29 11:12:29;;;;;;;52.13;29.70;;;10.30;99.90;;;;;;5049935;28;20119;-57
2024/02/29 11:14:58;;;;;;;53.83;30.08;;;10.00;99.90;;;;;;5051011;28;20144;-55
2024/02/29 11:17:28;;;;;;;51.72;30.83;;;10.00;99.90;;;;;;5050348;28;20187;-60
2024/02/29 11:19:58;;;;;;;52.15;31.20;;;10.80;99.90;;;;;;5052342;28;20546;-58
2024/02/29 11:22:34;;;;;;;46.90;28.30;;;10.20;99.90;;;;;;5052910;28;20024;-55
2024/02/29 11:25:07;;;;;;;53.53;30.08;;;10.50;99.90;;;;;;5052967;28;20017;-53
2024/02/29 11:27:33;;;;;;;59.58;31.73;;;10.10;99.90;;;;;;5051642;28;20044;-58
2024/02/29 11:30:00;;;;;;;55.40;31.98;;;9.70;99.90;;;;;;5051695;28;20110;-58
2024/02/29 11:32:29;;;;;;;50.45;30.30;;;9.70;99.90;;;;;;5053191;28;20086;-53
2024/02/29 11:34:55;;;;;;;55.88;29.75;;;9.80;99.90;;;;;;5052829;28;20017;-59
2024/02/29 11:37:20;;;;;;;55.30;29.20;;;9.70;99.90;;;;;;5050559;28;20029;-60
2024/02/29 11:39:47;;;;;;;50.97;30.60;;;9.90;99.90;;;;;;5049967;28;20501;-55
2024/02/29 11:42:13;;;;;;;49.22;29.50;;;10.00;99.90;;;;;;5050206;28;20029;-56
2024/02/29 11:44:46;;;;;;;45.63;29.20;;;9.60;99.90;;;;;;5050323;28;20025;-58
2024/02/29 11:47:11;;;;;;;56.35;31.15;;;9.40;99.90;;;;;;5050242;28;20528;-59
2024/02/29 11:49:37;;;;;;;52.35;29.23;;;9.50;99.90;;;;;;5051978;28;20112;-58
2024/02/29 11:52:03;;;;;;;58.83;32.38;;;9.30;99.90;;;;;;5053826;28;20025;-56
2024/02/29 11:54:30;;;;;;;59.97;32.05;;;9.20;99.90;;;;;;5072320;28;20032;-52
2024/02/29 11:56:56;;;;;;;54.05;30.58;;;9.30;99.90;;;;;;5059447;28;20319;-60
2024/02/29 11:59:24;;;;;;;48.90;27.83;;;;;;;;;;5051406;28;20075;-56
2024/02/29 12:01:49;;;;;;;68.60;39.88;;;9.30;99.90;;;;;;5050779;28;20109;-59
2024/02/29 12:04:15;;;;;;;58.53;33.95;;;9.20;99.90;;;;;;5051865;28;20088;-60
2024/02/29 12:06:41;;;;;;;226.02;123.55;;;9.30;99.90;;;;;;5052064;28;20063;-59
2024/02/29 12:09:11;;;;;;;60.83;33.85;;;9.30;99.90;;;;;;5052109;28;20025;-58
2024/02/29 12:11:37;;;;;;;53.83;32.17;;;9.30;99.90;;;;;;5052308;28;20099;-57
2024/02/29 12:14:02;;;;;;;53.60;31.08;;;9.20;99.90;;;;;;5052236;28;20053;-60
2024/02/29 12:16:29;;;;;;;55.67;31.20;;;9.30;99.90;;;;;;5051832;28;20488;-59
2024/02/29 12:18:54;;;;;;;57.72;32.33;;;9.30;99.90;;;;;;5052025;28;20368;-58
2024/02/29 12:21:24;;;;;;;51.72;30.70;;;9.20;99.90;;;;;;5052026;28;20045;-58
2024/02/29 12:23:50;;;;;;;52.30;30.35;;;9.30;99.90;;;;;;5052031;28;20021;-63
2024/02/29 12:26:16;;;;;;;52.65;29.48;;;9.20;99.90;;;;;;5052017;28;20047;-59
2024/02/29 12:28:42;;;;;;;49.17;29.98;;;9.20;99.90;;;;;;5051532;28;20078;-61
2024/02/29 12:31:08;;;;;;;54.13;31.40;;;9.10;99.90;;;;;;5051824;28;20028;-57
2024/02/29 12:33:38;;;;;;;58.55;30.98;;;9.20;99.90;;;;;;5051997;28;20028;-58
2024/02/29 12:36:06;;;;;;;53.40;29.90;;;9.30;99.90;;;;;;5051764;28;20407;-59
2024/02/29 12:38:33;;;;;;;52.80;30.38;;;9.20;99.90;;;;;;5052404;28;20051;-61
2024/02/29 12:40:59;;;;;;;51.80;31.95;;;9.20;99.90;;;;;;5051553;28;20025;-56
2024/02/29 12:43:24;;;;;;;57.35;31.10;;;9.20;99.90;;;;;;5051678;28;20386;-55
2024/02/29 12:45:50;;;;;;;57.15;30.88;;;9.20;99.90;;;;;;5051602;28;20381;-57
2024/02/29 12:48:15;;;;;;;57.72;30.75;;;9.10;99.90;;;;;;5049990;28;20017;-53
2024/02/29 12:50:41;;;;;;;52.95;30.52;;;9.10;99.90;;;;;;5050262;28;20377;-51